sensor_id;sensor_type;location;lat;lon;timestamp;pressure;altitude;pressure_sealevel;temperature;humidity
77793;BME280;66983;51.438;5.438;2023-04-21T00:01:21;101376.59;;;8.09;81.42
77793;BME280;66983;51.438;5.438;2023-04-21T00:03:46;101367.75;;;8.08;80.82
77793;BME280;66983;51.438;5.438;2023-04-21T00:06:12;101368.59;;;8.10;81.06
77793;BME280;66983;51.438;5.438;2023-04-21T00:08:37;101367.72;;;8.10;80.63
77793;BME280;66983;51.438;5.438;2023-04-21T00:11:07;101357.31;;;8.01;80.79
77793;BME280;66983;51.438;5.438;2023-04-21T00:13:35;101351.97;;;8.02;81.01
77793;BME280;66983;51.438;5.438;2023-04-21T00:16:01;101356.38;;;8.03;81.23
77793;BME280;66983;51.438;5.438;2023-04-21T00:18:27;101348.50;;;7.99;81.90
77793;BME280;66983;51.438;5.438;2023-04-21T00:20:53;101343.13;;;8.02;81.47
77793;BME280;66983;51.438;5.438;2023-04-21T00:23:18;101345.00;;;7.97;82.31
77793;BME280;66983;51.438;5.438;2023-04-21T00:25:44;101338.75;;;7.99;81.68
77793;BME280;66983;51.438;5.438;2023-04-21T00:28:10;101336.97;;;8.00;82.98
77793;BME280;66983;51.438;5.438;2023-04-21T00:30:36;101329.03;;;7.98;82.78
77793;BME280;66983;51.438;5.438;2023-04-21T00:33:03;101333.47;;;7.98;82.83
77793;BME280;66983;51.438;5.438;2023-04-21T00:35:29;101345.00;;;7.97;82.19
77793;BME280;66983;51.438;5.438;2023-04-21T00:37:55;101341.50;;;7.95;82.41
77793;BME280;66983;51.438;5.438;2023-04-21T00:40:20;101336.13;;;7.98;81.83
77793;BME280;66983;51.438;5.438;2023-04-21T00:42:46;101327.22;;;8.00;81.87
77793;BME280;66983;51.438;5.438;2023-04-21T00:45:11;101329.88;;;8.00;79.99
77793;BME280;66983;51.438;5.438;2023-04-21T00:47:40;101335.13;;;8.03;81.02
77793;BME280;66983;51.438;5.438;2023-04-21T00:50:06;101327.22;;;8.02;81.71
77793;BME280;66983;51.438;5.438;2023-04-21T00:52:32;101338.66;;;8.04;81.46
77793;BME280;66983;51.438;5.438;2023-04-21T00:54:58;101335.97;;;8.05;81.39
77793;BME280;66983;51.438;5.438;2023-04-21T00:57:26;101335.91;;;8.07;81.12
77793;BME280;66983;51.438;5.438;2023-04-21T00:59:53;101318.44;;;7.98;80.88
77793;BME280;66983;51.438;5.438;2023-04-21T01:02:20;101335.13;;;8.03;82.68
77793;BME280;66983;51.438;5.438;2023-04-21T01:04:47;101322.78;;;8.02;81.40
77793;BME280;66983;51.438;5.438;2023-04-21T01:07:13;101321.91;;;8.02;82.67
77793;BME280;66983;51.438;5.438;2023-04-21T01:09:39;101303.41;;;7.97;81.67
77793;BME280;66983;51.438;5.438;2023-04-21T01:12:07;101310.44;;;8.00;82.06
77793;BME280;66983;51.438;5.438;2023-04-21T01:14:34;101314.91;;;7.98;82.32
77793;BME280;66983;51.438;5.438;2023-04-21T01:17:00;101305.13;;;8.00;81.47
77793;BME280;66983;51.438;5.438;2023-04-21T01:19:29;101297.16;;;8.00;82.43
77793;BME280;66983;51.438;5.438;2023-04-21T01:21:56;101294.50;;;8.00;82.53
77793;BME280;66983;51.438;5.438;2023-04-21T01:24:35;101290.97;;;7.99;82.94
77793;BME280;66983;51.438;5.438;2023-04-21T01:27:02;101283.91;;;7.98;82.58
77793;BME280;66983;51.438;5.438;2023-04-21T01:29:32;101283.03;;;7.98;82.41
77793;BME280;66983;51.438;5.438;2023-04-21T01:31:58;101289.19;;;8.00;82.68
77793;BME280;66983;51.438;5.438;2023-04-21T01:34:27;101278.63;;;7.98;83.08
77793;BME280;66983;51.438;5.438;2023-04-21T01:36:53;101285.63;;;8.01;83.29
77793;BME280;66983;51.438;5.438;2023-04-21T01:39:18;101284.78;;;7.99;82.94
77793;BME280;66983;51.438;5.438;2023-04-21T01:41:44;101279.53;;;7.97;82.80
77793;BME280;66983;51.438;5.438;2023-04-21T01:44:10;101283.91;;;8.00;82.37
77793;BME280;66983;51.438;5.438;2023-04-21T01:46:36;101278.63;;;7.98;83.28
77793;BME280;66983;51.438;5.438;2023-04-21T01:49:02;101278.69;;;7.95;82.83
77793;BME280;66983;51.438;5.438;2023-04-21T01:51:28;101271.59;;;7.96;82.22
77793;BME280;66983;51.438;5.438;2023-04-21T01:53:53;101258.31;;;7.96;83.04
77793;BME280;66983;51.438;5.438;2023-04-21T01:56:19;101252.13;;;7.95;82.90
77793;BME280;66983;51.438;5.438;2023-04-21T01:58:45;101246.81;;;7.95;82.00
77793;BME280;66983;51.438;5.438;2023-04-21T02:01:10;101258.31;;;7.96;82.35
77793;BME280;66983;51.438;5.438;2023-04-21T02:03:36;101264.47;;;7.98;83.30
77793;BME280;66983;51.438;5.438;2023-04-21T02:06:01;101265.31;;;8.00;81.88
77793;BME280;66983;51.438;5.438;2023-04-21T02:08:27;101262.63;;;8.01;82.75
77793;BME280;66983;51.438;5.438;2023-04-21T02:10:52;101254.59;;;8.04;82.50
77793;BME280;66983;51.438;5.438;2023-04-21T02:13:18;101256.34;;;8.05;81.85
77793;BME280;66983;51.438;5.438;2023-04-21T02:15:43;101258.13;;;8.05;82.39
77793;BME280;66983;51.438;5.438;2023-04-21T02:18:09;101251.94;;;8.04;82.48
77793;BME280;66983;51.438;5.438;2023-04-21T02:20:34;101249.34;;;8.01;82.21
77793;BME280;66983;51.438;5.438;2023-04-21T02:23:01;101249.38;;;8.00;81.86
77793;BME280;66983;51.438;5.438;2023-04-21T02:25:27;101244.06;;;8.00;81.77
77793;BME280;66983;51.438;5.438;2023-04-21T02:27:52;101243.19;;;7.99;82.94
77793;BME280;66983;51.438;5.438;2023-04-21T02:30:18;101241.47;;;7.98;82.49
77793;BME280;66983;51.438;5.438;2023-04-21T02:32:43;101239.75;;;7.96;82.88
77793;BME280;66983;51.438;5.438;2023-04-21T02:35:10;101241.56;;;7.94;83.50
77793;BME280;66983;51.438;5.438;2023-04-21T02:37:36;101242.34;;;7.97;82.36
77793;BME280;66983;51.438;5.438;2023-04-21T02:40:01;101244.16;;;7.95;82.10
77793;BME280;66983;51.438;5.438;2023-04-21T02:42:29;101238.91;;;7.94;82.77
77793;BME280;66983;51.438;5.438;2023-04-21T02:44:54;101234.34;;;8.00;83.25
77793;BME280;66983;51.438;5.438;2023-04-21T02:47:20;101241.47;;;7.97;83.22
77793;BME280;66983;51.438;5.438;2023-04-21T02:49:45;101236.22;;;7.95;82.76
77793;BME280;66983;51.438;5.438;2023-04-21T02:52:11;101235.31;;;7.96;83.16
77793;BME280;66983;51.438;5.438;2023-04-21T02:54:37;101236.34;;;7.89;83.57
77793;BME280;66983;51.438;5.438;2023-04-21T02:57:02;101240.72;;;7.92;83.05
77793;BME280;66983;51.438;5.438;2023-04-21T02:59:28;101236.28;;;7.92;82.30
77793;BME280;66983;51.438;5.438;2023-04-21T03:01:53;101238.97;;;7.91;82.92
77793;BME280;66983;51.438;5.438;2023-04-21T03:04:19;101235.41;;;7.92;82.42
77793;BME280;66983;51.438;5.438;2023-04-21T03:06:44;101227.47;;;7.90;83.90
77793;BME280;66983;51.438;5.438;2023-04-21T03:09:11;101230.09;;;7.92;82.68
77793;BME280;66983;51.438;5.438;2023-04-21T03:11:36;101221.34;;;7.87;83.15
77793;BME280;66983;51.438;5.438;2023-04-21T03:14:02;101227.50;;;7.89;83.45
77793;BME280;66983;51.438;5.438;2023-04-21T03:16:28;101229.22;;;7.91;83.08
77793;BME280;66983;51.438;5.438;2023-04-21T03:18:53;101229.16;;;7.94;83.21
77793;BME280;66983;51.438;5.438;2023-04-21T03:21:19;101218.50;;;7.96;82.62
77793;BME280;66983;51.438;5.438;2023-04-21T03:23:45;101227.34;;;7.96;82.79
77793;BME280;66983;51.438;5.438;2023-04-21T03:26:10;101229.91;;;8.01;82.12
77793;BME280;66983;51.438;5.438;2023-04-21T03:28:36;101228.09;;;8.03;82.55
77793;BME280;66983;51.438;5.438;2023-04-21T03:31:01;101222.78;;;8.03;82.03
77793;BME280;66983;51.438;5.438;2023-04-21T03:33:27;101228.09;;;8.03;82.04
77793;BME280;66983;51.438;5.438;2023-04-21T03:35:53;101232.53;;;8.02;82.59
77793;BME280;66983;51.438;5.438;2023-04-21T03:38:18;101230.84;;;7.98;83.39
77793;BME280;66983;51.438;5.438;2023-04-21T03:40:44;101237.03;;;7.99;83.65
77793;BME280;66983;51.438;5.438;2023-04-21T03:43:10;101225.53;;;7.98;82.70
77793;BME280;66983;51.438;5.438;2023-04-21T03:45:37;101223.66;;;8.03;82.22
77793;BME280;66983;51.438;5.438;2023-04-21T03:48:02;101228.09;;;8.03;83.84
77793;BME280;66983;51.438;5.438;2023-04-21T03:50:28;101228.88;;;8.06;82.67
77793;BME280;66983;51.438;5.438;2023-04-21T03:52:54;101227.06;;;8.08;82.54
77793;BME280;66983;51.438;5.438;2023-04-21T03:55:19;101227.97;;;8.07;83.81
77793;BME280;66983;51.438;5.438;2023-04-21T03:57:45;101230.66;;;8.06;83.80
77793;BME280;66983;51.438;5.438;2023-04-21T04:00:11;101240.44;;;8.04;83.86
77793;BME280;66983;51.438;5.438;2023-04-21T04:02:40;101234.16;;;8.06;83.76
77793;BME280;66983;51.438;5.438;2023-04-21T04:05:06;101227.94;;;8.09;83.61
77793;BME280;66983;51.438;5.438;2023-04-21T04:07:32;101225.28;;;8.09;83.61
77793;BME280;66983;51.438;5.438;2023-04-21T04:09:58;101221.75;;;8.08;83.53
77793;BME280;66983;51.438;5.438;2023-04-21T04:12:23;101223.56;;;8.06;84.48
77793;BME280;66983;51.438;5.438;2023-04-21T04:14:49;101226.31;;;8.03;84.57
77793;BME280;66983;51.438;5.438;2023-04-21T04:17:15;101226.97;;;8.11;84.39
77793;BME280;66983;51.438;5.438;2023-04-21T04:19:40;101208.41;;;8.11;84.02
77793;BME280;66983;51.438;5.438;2023-04-21T04:22:06;101214.50;;;8.16;83.40
77793;BME280;66983;51.438;5.438;2023-04-21T04:24:32;101211.75;;;8.20;83.46
77793;BME280;66983;51.438;5.438;2023-04-21T04:26:58;101204.75;;;8.17;83.54
77793;BME280;66983;51.438;5.438;2023-04-21T04:29:24;101209.13;;;8.18;83.81
77793;BME280;66983;51.438;5.438;2023-04-21T04:31:51;101214.56;;;8.13;84.15
77793;BME280;66983;51.438;5.438;2023-04-21T04:34:17;101217.22;;;8.13;84.26
77793;BME280;66983;51.438;5.438;2023-04-21T04:36:44;101220.81;;;8.11;84.75
77793;BME280;66983;51.438;5.438;2023-04-21T04:39:09;101227.97;;;8.07;84.84
77793;BME280;66983;51.438;5.438;2023-04-21T04:41:37;101227.94;;;8.09;84.04
77793;BME280;66983;51.438;5.438;2023-04-21T04:44:02;101222.69;;;8.06;85.15
77793;BME280;66983;51.438;5.438;2023-04-21T04:46:30;101213.94;;;8.02;84.72
77793;BME280;66983;51.438;5.438;2023-04-21T04:48:56;101220.09;;;8.04;84.67
77793;BME280;66983;51.438;5.438;2023-04-21T04:51:21;101221.78;;;8.07;83.48
77793;BME280;66983;51.438;5.438;2023-04-21T04:53:50;101222.78;;;8.03;85.10
77793;BME280;66983;51.438;5.438;2023-04-21T04:56:15;101219.28;;;8.01;84.46
77793;BME280;66983;51.438;5.438;2023-04-21T04:58:41;101223.78;;;7.97;84.91
77793;BME280;66983;51.438;5.438;2023-04-21T05:01:16;101229.88;;;8.02;83.96
77793;BME280;66983;51.438;5.438;2023-04-21T05:03:44;101228.09;;;8.03;85.03
77793;BME280;66983;51.438;5.438;2023-04-21T05:06:10;101230.78;;;8.01;84.57
77793;BME280;66983;51.438;5.438;2023-04-21T05:08:36;101228.09;;;8.03;85.03
77793;BME280;66983;51.438;5.438;2023-04-21T05:11:01;101231.66;;;8.02;85.15
77793;BME280;66983;51.438;5.438;2023-04-21T05:13:27;101235.03;;;8.07;84.86
77793;BME280;66983;51.438;5.438;2023-04-21T05:15:59;101225.31;;;8.07;85.09
77793;BME280;66983;51.438;5.438;2023-04-21T05:18:26;101231.50;;;8.08;84.20
77793;BME280;66983;51.438;5.438;2023-04-21T05:20:52;101244.78;;;8.06;84.81
77793;BME280;66983;51.438;5.438;2023-04-21T05:23:17;101239.47;;;8.06;84.95
77793;BME280;66983;51.438;5.438;2023-04-21T05:25:43;101244.75;;;8.08;84.80
77793;BME280;66983;51.438;5.438;2023-04-21T05:28:09;101247.41;;;8.08;85.15
77793;BME280;66983;51.438;5.438;2023-04-21T05:30:34;101243.91;;;8.06;86.40
77793;BME280;66983;51.438;5.438;2023-04-21T05:33:00;101240.34;;;8.07;85.77
77793;BME280;66983;51.438;5.438;2023-04-21T05:35:25;101244.84;;;8.05;85.77
77793;BME280;66983;51.438;5.438;2023-04-21T05:37:51;101243.88;;;8.07;84.71
77793;BME280;66983;51.438;5.438;2023-04-21T05:40:16;101244.00;;;8.03;84.77
77793;BME280;66983;51.438;5.438;2023-04-21T05:42:42;101251.88;;;8.06;84.38
77793;BME280;66983;51.438;5.438;2023-04-21T05:45:08;101246.53;;;8.07;85.36
77793;BME280;66983;51.438;5.438;2023-04-21T05:47:33;101250.03;;;8.09;85.70
77793;BME280;66983;51.438;5.438;2023-04-21T05:49:59;101255.28;;;8.12;84.79
77793;BME280;66983;51.438;5.438;2023-04-21T05:52:25;101253.56;;;8.10;85.32
77793;BME280;66983;51.438;5.438;2023-04-21T05:54:50;101257.03;;;8.13;84.53
77793;BME280;66983;51.438;5.438;2023-04-21T05:57:16;101254.41;;;8.12;85.57
77793;BME280;66983;51.438;5.438;2023-04-21T05:59:42;101262.28;;;8.16;84.89
77793;BME280;66983;51.438;5.438;2023-04-21T06:02:08;101257.78;;;8.20;85.51
77793;BME280;66983;51.438;5.438;2023-04-21T06:04:33;101256.75;;;8.27;84.92
77793;BME280;66983;51.438;5.438;2023-04-21T06:07:09;101253.09;;;8.31;84.96
77793;BME280;66983;51.438;5.438;2023-04-21T06:09:38;101246.06;;;8.30;84.22
77793;BME280;66983;51.438;5.438;2023-04-21T06:12:04;101246.91;;;8.31;85.04
77793;BME280;66983;51.438;5.438;2023-04-21T06:14:30;101241.50;;;8.35;84.22
77793;BME280;66983;51.438;5.438;2023-04-21T06:16:56;101245.00;;;8.37;84.81
77793;BME280;66983;51.438;5.438;2023-04-21T06:19:22;101240.34;;;8.47;85.06
77793;BME280;66983;51.438;5.438;2023-04-21T06:21:47;101251.81;;;8.49;85.38
77793;BME280;66983;51.438;5.438;2023-04-21T06:24:13;101249.88;;;8.57;85.08
77793;BME280;66983;51.438;5.438;2023-04-21T06:26:38;101250.59;;;8.62;83.36
77793;BME280;66983;51.438;5.438;2023-04-21T06:29:04;101247.84;;;8.67;83.97
77793;BME280;66983;51.438;5.438;2023-04-21T06:31:30;101243.38;;;8.69;83.91
77793;BME280;66983;51.438;5.438;2023-04-21T06:33:55;101253.84;;;8.75;83.60
77793;BME280;66983;51.438;5.438;2023-04-21T06:36:21;101254.44;;;8.86;83.01
77793;BME280;66983;51.438;5.438;2023-04-21T06:38:47;101247.09;;;8.96;83.09
77793;BME280;66983;51.438;5.438;2023-04-21T06:41:13;101238.94;;;9.03;84.09
77793;BME280;66983;51.438;5.438;2023-04-21T06:43:39;101239.69;;;9.08;82.23
77793;BME280;66983;51.438;5.438;2023-04-21T06:46:07;101243.00;;;9.16;82.89
77793;BME280;66983;51.438;5.438;2023-04-21T06:48:33;101240.16;;;9.24;81.97
77793;BME280;66983;51.438;5.438;2023-04-21T06:50:59;101248.75;;;9.34;80.64
77793;BME280;66983;51.438;5.438;2023-04-21T06:53:25;101239.03;;;9.33;80.56
77793;BME280;66983;51.438;5.438;2023-04-21T06:55:51;101249.44;;;9.40;81.03
77793;BME280;66983;51.438;5.438;2023-04-21T06:58:17;101240.31;;;9.50;81.16
77793;BME280;66983;51.438;5.438;2023-04-21T07:00:43;101240.94;;;9.60;80.41
77793;BME280;66983;51.438;5.438;2023-04-21T07:03:08;101243.47;;;9.63;79.58
77793;BME280;66983;51.438;5.438;2023-04-21T07:05:34;101240.69;;;9.68;78.25
77793;BME280;66983;51.438;5.438;2023-04-21T07:07:59;101230.97;;;9.67;78.12
77793;BME280;66983;51.438;5.438;2023-04-21T07:10:26;101239.69;;;9.72;79.47
77793;BME280;66983;51.438;5.438;2023-04-21T07:12:52;101245.78;;;9.75;79.81
77793;BME280;66983;51.438;5.438;2023-04-21T07:15:18;101238.72;;;9.74;77.66
77793;BME280;66983;51.438;5.438;2023-04-21T07:17:44;101253.63;;;9.81;79.43
77793;BME280;66983;51.438;5.438;2023-04-21T07:20:09;101248.94;;;9.88;76.76
77793;BME280;66983;51.438;5.438;2023-04-21T07:22:35;101246.25;;;9.90;77.69
77793;BME280;66983;51.438;5.438;2023-04-21T07:25:02;101247.25;;;9.87;76.93
77793;BME280;66983;51.438;5.438;2023-04-21T07:27:31;101251.56;;;9.90;76.55
77793;BME280;66983;51.438;5.438;2023-04-21T07:29:57;101236.38;;;9.93;76.39
77793;BME280;66983;51.438;5.438;2023-04-21T07:32:23;101235.50;;;9.93;77.81
77793;BME280;66983;51.438;5.438;2023-04-21T07:34:48;101237.94;;;10.00;77.33
77793;BME280;66983;51.438;5.438;2023-04-21T07:37:14;101235.72;;;10.14;76.49
77793;BME280;66983;51.438;5.438;2023-04-21T07:39:40;101235.69;;;10.16;75.31
77793;BME280;66983;51.438;5.438;2023-04-21T07:42:06;101240.31;;;10.11;75.69
77793;BME280;66983;51.438;5.438;2023-04-21T07:44:33;101231.47;;;10.09;75.71
77793;BME280;66983;51.438;5.438;2023-04-21T07:46:59;101238.38;;;10.14;74.52
77793;BME280;66983;51.438;5.438;2023-04-21T07:49:25;101239.94;;;10.23;75.29
77793;BME280;66983;51.438;5.438;2023-04-21T07:51:50;101239.63;;;10.34;75.33
77793;BME280;66983;51.438;5.438;2023-04-21T07:54:16;101237.50;;;10.43;75.14
77793;BME280;66983;51.438;5.438;2023-04-21T07:56:41;101239.84;;;10.54;74.16
77793;BME280;66983;51.438;5.438;2023-04-21T07:59:07;101233.53;;;10.57;74.51
77793;BME280;66983;51.438;5.438;2023-04-21T08:01:33;101231.50;;;10.65;73.68
77793;BME280;66983;51.438;5.438;2023-04-21T08:03:58;101222.63;;;10.64;72.42
77793;BME280;66983;51.438;5.438;2023-04-21T08:06:24;101226.31;;;10.60;72.95
77793;BME280;66983;51.438;5.438;2023-04-21T08:08:49;101232.31;;;10.67;72.15
77793;BME280;66983;51.438;5.438;2023-04-21T08:11:15;101231.91;;;10.79;72.74
77793;BME280;66983;51.438;5.438;2023-04-21T08:13:40;101230.69;;;10.89;72.65
77793;BME280;66983;51.438;5.438;2023-04-21T08:16:06;101227.78;;;10.95;72.41
77793;BME280;66983;51.438;5.438;2023-04-21T08:18:31;101230.88;;;11.09;72.28
77793;BME280;66983;51.438;5.438;2023-04-21T08:20:57;101228.66;;;11.20;70.56
77793;BME280;66983;51.438;5.438;2023-04-21T08:23:23;101224.91;;;11.26;71.23
77793;BME280;66983;51.438;5.438;2023-04-21T08:25:48;101228.50;;;11.25;69.55
77793;BME280;66983;51.438;5.438;2023-04-21T08:28:14;101222.19;;;11.28;70.52
77793;BME280;66983;51.438;5.438;2023-04-21T08:30:40;101223.63;;;11.38;69.97
77793;BME280;66983;51.438;5.438;2023-04-21T08:33:06;101223.28;;;11.47;70.07
77793;BME280;66983;51.438;5.438;2023-04-21T08:35:34;101221.41;;;11.49;68.70
77793;BME280;66983;51.438;5.438;2023-04-21T08:38:00;101217.59;;;11.56;69.39
77793;BME280;66983;51.438;5.438;2023-04-21T08:40:33;101216.25;;;11.69;69.14
77793;BME280;66983;51.438;5.438;2023-04-21T08:43:00;101215.69;;;11.84;68.62
77793;BME280;66983;51.438;5.438;2023-04-21T08:45:26;101212.78;;;11.91;68.27
77793;BME280;66983;51.438;5.438;2023-04-21T08:47:54;101211.84;;;11.92;67.15
77793;BME280;66983;51.438;5.438;2023-04-21T08:50:26;101217.63;;;12.03;65.84
77793;BME280;66983;51.438;5.438;2023-04-21T08:52:56;101210.94;;;12.14;68.08
77793;BME280;66983;51.438;5.438;2023-04-21T08:55:29;101212.25;;;12.26;66.65
77793;BME280;66983;51.438;5.438;2023-04-21T08:57:55;101202.00;;;12.37;67.76
77793;BME280;66983;51.438;5.438;2023-04-21T09:00:21;101201.47;;;12.49;67.75
77793;BME280;66983;51.438;5.438;2023-04-21T09:02:56;101199.25;;;12.61;65.20
77793;BME280;66983;51.438;5.438;2023-04-21T09:05:24;101193.66;;;12.67;64.32
77793;BME280;66983;51.438;5.438;2023-04-21T09:07:54;101188.88;;;12.73;62.85
77793;BME280;66983;51.438;5.438;2023-04-21T09:10:32;101180.09;;;12.71;64.03
77793;BME280;66983;51.438;5.438;2023-04-21T09:13:05;101192.31;;;12.77;63.24
77793;BME280;66983;51.438;5.438;2023-04-21T09:15:37;101195.97;;;12.74;62.37
77793;BME280;66983;51.438;5.438;2023-04-21T09:18:19;101193.41;;;12.73;61.84
77793;BME280;66983;51.438;5.438;2023-04-21T09:20:46;101185.16;;;12.77;61.80
77793;BME280;66983;51.438;5.438;2023-04-21T09:23:12;101191.25;;;12.81;62.47
77793;BME280;66983;51.438;5.438;2023-04-21T09:25:40;101184.47;;;12.94;62.67
77793;BME280;66983;51.438;5.438;2023-04-21T09:28:07;101190.94;;;13.09;62.96
77793;BME280;66983;51.438;5.438;2023-04-21T09:30:40;101189.63;;;13.19;62.08
77793;BME280;66983;51.438;5.438;2023-04-21T09:33:07;101191.25;;;13.23;60.89
77793;BME280;66983;51.438;5.438;2023-04-21T09:35:34;101190.88;;;13.31;62.20
77793;BME280;66983;51.438;5.438;2023-04-21T09:38:03;101191.69;;;13.33;61.39
77793;BME280;66983;51.438;5.438;2023-04-21T09:40:29;101191.88;;;13.28;61.79
77793;BME280;66983;51.438;5.438;2023-04-21T09:42:55;101183.28;;;13.21;61.40
77793;BME280;66983;51.438;5.438;2023-04-21T09:45:26;101185.25;;;13.37;60.79
77793;BME280;66983;51.438;5.438;2023-04-21T09:47:56;101185.13;;;13.40;61.87
77793;BME280;66983;51.438;5.438;2023-04-21T09:50:23;101188.28;;;13.49;62.39
77793;BME280;66983;51.438;5.438;2023-04-21T09:52:51;101192.25;;;13.59;62.59
77793;BME280;66983;51.438;5.438;2023-04-21T09:55:19;101181.31;;;13.64;58.29
77793;BME280;66983;51.438;5.438;2023-04-21T09:57:47;101174.63;;;13.74;60.77
77793;BME280;66983;51.438;5.438;2023-04-21T10:00:16;101168.53;;;13.89;60.64
77793;BME280;66983;51.438;5.438;2023-04-21T10:02:47;101166.34;;;13.98;57.97
77793;BME280;66983;51.438;5.438;2023-04-21T10:05:13;101159.03;;;14.01;59.79
77793;BME280;66983;51.438;5.438;2023-04-21T10:07:38;101163.88;;;14.12;58.93
77793;BME280;66983;51.438;5.438;2023-04-21T10:10:28;101168.63;;;14.24;59.43
77793;BME280;66983;51.438;5.438;2023-04-21T10:12:57;101153.56;;;14.21;58.94
77793;BME280;66983;51.438;5.438;2023-04-21T10:15:37;101157.06;;;14.23;59.74
77793;BME280;66983;51.438;5.438;2023-04-21T10:18:22;101151.22;;;14.33;58.19
77793;BME280;66983;51.438;5.438;2023-04-21T10:21:01;101146.50;;;14.38;57.41
77793;BME280;66983;51.438;5.438;2023-04-21T10:26:00;101139.63;;;14.51;57.92
77793;BME280;66983;51.438;5.438;2023-04-21T10:31:36;101138.88;;;14.82;55.33
77793;BME280;66983;51.438;5.438;2023-04-21T10:39:43;101126.75;;;14.92;59.53
77793;BME280;66983;51.438;5.438;2023-04-21T10:44:49;101123.28;;;14.90;57.64
77793;BME280;66983;51.438;5.438;2023-04-21T10:49:50;101122.03;;;14.80;58.24
77793;BME280;66983;51.438;5.438;2023-04-21T10:52:15;101114.44;;;14.88;57.49
77793;BME280;66983;51.438;5.438;2023-04-21T10:55:05;101120.59;;;14.90;58.56
77793;BME280;66983;51.438;5.438;2023-04-21T10:57:33;101118.94;;;14.87;57.61
77793;BME280;66983;51.438;5.438;2023-04-21T10:59:59;101107.56;;;14.82;58.73
77793;BME280;66983;51.438;5.438;2023-04-21T11:02:25;101116.25;;;14.70;57.85
77793;BME280;66983;51.438;5.438;2023-04-21T11:04:52;101105.84;;;14.64;58.84
77793;BME280;66983;51.438;5.438;2023-04-21T11:07:20;101109.41;;;14.65;58.23
77793;BME280;66983;51.438;5.438;2023-04-21T11:09:55;101097.16;;;14.76;59.52
77793;BME280;66983;51.438;5.438;2023-04-21T11:12:22;101092.66;;;14.77;57.78
77793;BME280;66983;51.438;5.438;2023-04-21T11:14:50;101085.06;;;14.85;56.90
77793;BME280;66983;51.438;5.438;2023-04-21T11:17:19;101082.22;;;14.88;58.02
77793;BME280;66983;51.438;5.438;2023-04-21T11:19:46;101078.47;;;14.75;58.00
77793;BME280;66983;51.438;5.438;2023-04-21T11:22:15;101078.63;;;14.72;58.00
77793;BME280;66983;51.438;5.438;2023-04-21T11:24:45;101070.72;;;14.69;57.69
77793;BME280;66983;51.438;5.438;2023-04-21T11:27:11;101066.78;;;14.76;57.98
77793;BME280;66983;51.438;5.438;2023-04-21T11:29:39;101065.00;;;14.92;56.85
77793;BME280;66983;51.438;5.438;2023-04-21T11:32:08;101046.84;;;14.97;56.05
77793;BME280;66983;51.438;5.438;2023-04-21T11:34:36;101055.31;;;15.22;56.35
77793;BME280;66983;51.438;5.438;2023-04-21T11:37:03;101054.69;;;15.33;54.42
77793;BME280;66983;51.438;5.438;2023-04-21T11:39:28;101039.97;;;15.40;54.87
77793;BME280;66983;51.438;5.438;2023-04-21T11:41:54;101040.34;;;15.50;53.27
77793;BME280;66983;51.438;5.438;2023-04-21T11:44:37;101030.28;;;15.53;53.57
77793;BME280;66983;51.438;5.438;2023-04-21T11:47:16;101020.88;;;15.78;53.71
77793;BME280;66983;51.438;5.438;2023-04-21T11:49:51;101033.56;;;16.06;54.01
77793;BME280;66983;51.438;5.438;2023-04-21T11:52:29;101034.91;;;16.13;51.54
77793;BME280;66983;51.438;5.438;2023-04-21T11:55:12;101030.47;;;16.27;54.20
77793;BME280;66983;51.438;5.438;2023-04-21T11:57:41;101021.47;;;16.43;50.11
77793;BME280;66983;51.438;5.438;2023-04-21T12:00:09;101031.28;;;16.44;50.04
77793;BME280;66983;51.438;5.438;2023-04-21T12:02:38;101021.19;;;16.33;53.01
77793;BME280;66983;51.438;5.438;2023-04-21T12:05:06;101027.28;;;16.21;53.78
77793;BME280;66983;51.438;5.438;2023-04-21T12:07:35;101022.59;;;16.24;52.18
77793;BME280;66983;51.438;5.438;2023-04-21T12:10:14;101010.53;;;16.16;52.22
77793;BME280;66983;51.438;5.438;2023-04-21T12:12:42;101014.38;;;16.12;52.44
77793;BME280;66983;51.438;5.438;2023-04-21T12:15:09;101010.16;;;16.08;52.33
77793;BME280;66983;51.438;5.438;2023-04-21T12:17:37;101011.50;;;16.15;54.64
77793;BME280;66983;51.438;5.438;2023-04-21T12:20:06;101003.31;;;16.32;52.25
77793;BME280;66983;51.438;5.438;2023-04-21T12:22:32;101002.34;;;16.47;52.19
77793;BME280;66983;51.438;5.438;2023-04-21T12:24:57;101002.19;;;16.50;51.26
77793;BME280;66983;51.438;5.438;2023-04-21T12:27:23;100993.78;;;16.41;51.11
77793;BME280;66983;51.438;5.438;2023-04-21T12:29:49;100999.56;;;16.49;50.66
77793;BME280;66983;51.438;5.438;2023-04-21T12:32:14;100996.63;;;16.53;49.97
77793;BME280;66983;51.438;5.438;2023-04-21T12:34:40;100997.06;;;16.32;49.88
77793;BME280;66983;51.438;5.438;2023-04-21T12:37:06;100992.38;;;16.05;50.25
77793;BME280;66983;51.438;5.438;2023-04-21T12:39:32;100986.66;;;15.95;50.50
77793;BME280;66983;51.438;5.438;2023-04-21T12:41:58;100988.75;;;15.90;50.32
77793;BME280;66983;51.438;5.438;2023-04-21T12:44:24;100984.31;;;15.89;49.19
77793;BME280;66983;51.438;5.438;2023-04-21T12:46:51;100985.06;;;15.77;50.25
77793;BME280;66983;51.438;5.438;2023-04-21T12:49:17;100974.56;;;15.73;50.67
77793;BME280;66983;51.438;5.438;2023-04-21T12:51:43;100977.78;;;15.79;50.53
77793;BME280;66983;51.438;5.438;2023-04-21T12:54:12;100971.31;;;15.98;51.51
77793;BME280;66983;51.438;5.438;2023-04-21T12:56:38;100972.78;;;16.17;50.00
77793;BME280;66983;51.438;5.438;2023-04-21T12:59:05;100972.56;;;16.36;49.66
77793;BME280;66983;51.438;5.438;2023-04-21T13:01:31;100973.31;;;16.38;49.44
77793;BME280;66983;51.438;5.438;2023-04-21T13:03:57;100976.22;;;16.49;50.73
77793;BME280;66983;51.438;5.438;2023-04-21T13:06:23;100975.69;;;16.58;50.11
77793;BME280;66983;51.438;5.438;2023-04-21T13:08:49;100976.66;;;16.72;49.73
77793;BME280;66983;51.438;5.438;2023-04-21T13:11:15;100968.31;;;16.76;49.19